sensor_id;sensor_type;location;lat;lon;timestamp;P1;durP1;ratioP1;P2;durP2;ratioP2
26407;SDS011;14583;43.604;1.364;2024-03-22T00:00:59;21.40;;;11.38;;
26407;SDS011;14583;43.604;1.364;2024-03-22T00:03:25;24.92;;;10.35;;
26407;SDS011;14583;43.604;1.364;2024-03-22T00:05:50;21.00;;;10.98;;
26407;SDS011;14583;43.604;1.364;2024-03-22T00:08:16;22.90;;;10.23;;
26407;SDS011;14583;43.604;1.364;2024-03-22T00:10:41;23.45;;;11.57;;
26407;SDS011;14583;43.604;1.364;2024-03-22T00:13:07;23.73;;;10.43;;
26407;SDS011;14583;43.604;1.364;2024-03-22T00:15:33;21.77;;;10.50;;
26407;SDS011;14583;43.604;1.364;2024-03-22T00:17:58;24.92;;;11.15;;
26407;SDS011;14583;43.604;1.364;2024-03-22T00:20:24;17.75;;;10.52;;
26407;SDS011;14583;43.604;1.364;2024-03-22T00:22:50;22.45;;;11.13;;
26407;SDS011;14583;43.604;1.364;2024-03-22T00:25:15;22.58;;;11.85;;
26407;SDS011;14583;43.604;1.364;2024-03-22T00:27:41;23.88;;;11.15;;
26407;SDS011;14583;43.604;1.364;2024-03-22T00:30:07;22.88;;;10.95;;
26407;SDS011;14583;43.604;1.364;2024-03-22T00:32:33;21.15;;;11.10;;
26407;SDS011;14583;43.604;1.364;2024-03-22T00:34:58;19.90;;;10.55;;
26407;SDS011;14583;43.604;1.364;2024-03-22T00:37:24;20.15;;;10.45;;
26407;SDS011;14583;43.604;1.364;2024-03-22T00:39:50;16.45;;;10.40;;
26407;SDS011;14583;43.604;1.364;2024-03-22T00:42:15;27.92;;;11.43;;
26407;SDS011;14583;43.604;1.364;2024-03-22T00:44:41;25.50;;;10.82;;
26407;SDS011;14583;43.604;1.364;2024-03-22T00:47:07;23.30;;;9.82;;
26407;SDS011;14583;43.604;1.364;2024-03-22T00:49:33;24.85;;;11.05;;
26407;SDS011;14583;43.604;1.364;2024-03-22T00:51:58;35.03;;;10.40;;
26407;SDS011;14583;43.604;1.364;2024-03-22T00:54:24;21.63;;;10.60;;
26407;SDS011;14583;43.604;1.364;2024-03-22T00:56:50;21.75;;;10.38;;
26407;SDS011;14583;43.604;1.364;2024-03-22T00:59:15;18.85;;;9.70;;
26407;SDS011;14583;43.604;1.364;2024-03-22T01:01:41;19.90;;;9.25;;
26407;SDS011;14583;43.604;1.364;2024-03-22T01:04:07;20.90;;;9.45;;
26407;SDS011;14583;43.604;1.364;2024-03-22T01:06:34;17.65;;;9.73;;
26407;SDS011;14583;43.604;1.364;2024-03-22T01:09:00;25.00;;;10.30;;
26407;SDS011;14583;43.604;1.364;2024-03-22T01:11:25;21.63;;;10.15;;
26407;SDS011;14583;43.604;1.364;2024-03-22T01:13:51;21.52;;;10.60;;
26407;SDS011;14583;43.604;1.364;2024-03-22T01:16:17;24.55;;;9.75;;
26407;SDS011;14583;43.604;1.364;2024-03-22T01:18:42;25.50;;;10.45;;
26407;SDS011;14583;43.604;1.364;2024-03-22T01:21:08;16.38;;;10.15;;
26407;SDS011;14583;43.604;1.364;2024-03-22T01:23:34;20.88;;;9.85;;
26407;SDS011;14583;43.604;1.364;2024-03-22T01:25:59;24.75;;;10.13;;
26407;SDS011;14583;43.604;1.364;2024-03-22T01:28:25;23.90;;;10.35;;
26407;SDS011;14583;43.604;1.364;2024-03-22T01:30:51;21.67;;;10.32;;
26407;SDS011;14583;43.604;1.364;2024-03-22T01:33:16;19.77;;;9.90;;
26407;SDS011;14583;43.604;1.364;2024-03-22T01:35:42;22.05;;;10.15;;
26407;SDS011;14583;43.604;1.364;2024-03-22T01:38:07;19.15;;;9.93;;
26407;SDS011;14583;43.604;1.364;2024-03-22T01:40:33;16.08;;;9.93;;
26407;SDS011;14583;43.604;1.364;2024-03-22T01:42:59;20.95;;;10.35;;
26407;SDS011;14583;43.604;1.364;2024-03-22T01:45:25;26.02;;;10.60;;
26407;SDS011;14583;43.604;1.364;2024-03-22T01:47:54;21.23;;;10.52;;
26407;SDS011;14583;43.604;1.364;2024-03-22T01:50:21;27.92;;;10.85;;
26407;SDS011;14583;43.604;1.364;2024-03-22T01:52:47;19.73;;;10.80;;
26407;SDS011;14583;43.604;1.364;2024-03-22T01:55:13;22.17;;;10.07;;
26407;SDS011;14583;43.604;1.364;2024-03-22T01:57:39;26.42;;;10.77;;
26407;SDS011;14583;43.604;1.364;2024-03-22T02:00:05;19.35;;;11.30;;
26407;SDS011;14583;43.604;1.364;2024-03-22T02:02:33;21.52;;;11.20;;
26407;SDS011;14583;43.604;1.364;2024-03-22T02:04:59;20.50;;;10.35;;
26407;SDS011;14583;43.604;1.364;2024-03-22T02:07:36;19.48;;;10.93;;
26407;SDS011;14583;43.604;1.364;2024-03-22T02:10:02;21.25;;;11.02;;
26407;SDS011;14583;43.604;1.364;2024-03-22T02:12:27;18.73;;;11.57;;
26407;SDS011;14583;43.604;1.364;2024-03-22T02:14:53;21.63;;;11.55;;
26407;SDS011;14583;43.604;1.364;2024-03-22T02:17:23;27.58;;;11.00;;
26407;SDS011;14583;43.604;1.364;2024-03-22T02:19:48;18.48;;;11.00;;
26407;SDS011;14583;43.604;1.364;2024-03-22T02:22:14;21.13;;;11.82;;
26407;SDS011;14583;43.604;1.364;2024-03-22T02:24:40;24.35;;;11.23;;
26407;SDS011;14583;43.604;1.364;2024-03-22T02:27:05;17.75;;;11.00;;
26407;SDS011;14583;43.604;1.364;2024-03-22T02:29:31;20.05;;;11.07;;
26407;SDS011;14583;43.604;1.364;2024-03-22T02:31:57;22.13;;;11.55;;
26407;SDS011;14583;43.604;1.364;2024-03-22T02:34:23;26.02;;;12.30;;
26407;SDS011;14583;43.604;1.364;2024-03-22T02:36:49;32.50;;;11.68;;
26407;SDS011;14583;43.604;1.364;2024-03-22T02:39:14;24.75;;;11.52;;
26407;SDS011;14583;43.604;1.364;2024-03-22T02:41:40;22.25;;;10.65;;
26407;SDS011;14583;43.604;1.364;2024-03-22T02:44:06;22.95;;;11.90;;
26407;SDS011;14583;43.604;1.364;2024-03-22T02:46:32;21.75;;;11.45;;
26407;SDS011;14583;43.604;1.364;2024-03-22T02:48:57;23.88;;;11.48;;
26407;SDS011;14583;43.604;1.364;2024-03-22T02:51:23;30.00;;;11.95;;
26407;SDS011;14583;43.604;1.364;2024-03-22T02:53:49;24.98;;;11.80;;
26407;SDS011;14583;43.604;1.364;2024-03-22T02:56:15;18.50;;;11.52;;
26407;SDS011;14583;43.604;1.364;2024-03-22T02:58:40;23.17;;;11.45;;
26407;SDS011;14583;43.604;1.364;2024-03-22T03:01:06;23.42;;;11.65;;
26407;SDS011;14583;43.604;1.364;2024-03-22T03:03:32;19.85;;;11.50;;
26407;SDS011;14583;43.604;1.364;2024-03-22T03:05:57;21.65;;;11.10;;
26407;SDS011;14583;43.604;1.364;2024-03-22T03:08:23;22.98;;;11.52;;
26407;SDS011;14583;43.604;1.364;2024-03-22T03:10:49;30.98;;;11.75;;
26407;SDS011;14583;43.604;1.364;2024-03-22T03:13:15;20.65;;;11.30;;
26407;SDS011;14583;43.604;1.364;2024-03-22T03:15:40;24.15;;;10.80;;
26407;SDS011;14583;43.604;1.364;2024-03-22T03:18:06;19.85;;;11.18;;
26407;SDS011;14583;43.604;1.364;2024-03-22T03:20:32;18.00;;;10.73;;
26407;SDS011;14583;43.604;1.364;2024-03-22T03:22:57;22.85;;;11.85;;
26407;SDS011;14583;43.604;1.364;2024-03-22T03:25:24;18.38;;;10.48;;
26407;SDS011;14583;43.604;1.364;2024-03-22T03:27:51;23.58;;;11.65;;
26407;SDS011;14583;43.604;1.364;2024-03-22T03:30:17;18.77;;;10.32;;
26407;SDS011;14583;43.604;1.364;2024-03-22T03:32:43;19.90;;;11.20;;
26407;SDS011;14583;43.604;1.364;2024-03-22T03:35:08;16.80;;;10.93;;
26407;SDS011;14583;43.604;1.364;2024-03-22T03:37:34;23.63;;;12.40;;
26407;SDS011;14583;43.604;1.364;2024-03-22T03:39:59;21.52;;;11.40;;
26407;SDS011;14583;43.604;1.364;2024-03-22T03:42:25;20.90;;;10.85;;
26407;SDS011;14583;43.604;1.364;2024-03-22T03:44:51;20.27;;;11.40;;
26407;SDS011;14583;43.604;1.364;2024-03-22T03:47:17;19.02;;;10.65;;
26407;SDS011;14583;43.604;1.364;2024-03-22T03:49:44;24.75;;;11.40;;
26407;SDS011;14583;43.604;1.364;2024-03-22T03:52:10;25.35;;;11.88;;
26407;SDS011;14583;43.604;1.364;2024-03-22T03:54:36;22.77;;;10.93;;
26407;SDS011;14583;43.604;1.364;2024-03-22T03:57:02;22.25;;;10.57;;
26407;SDS011;14583;43.604;1.364;2024-03-22T03:59:28;20.55;;;11.05;;
26407;SDS011;14583;43.604;1.364;2024-03-22T04:01:54;24.52;;;10.23;;
26407;SDS011;14583;43.604;1.364;2024-03-22T04:04:19;16.67;;;10.20;;
26407;SDS011;14583;43.604;1.364;2024-03-22T04:06:45;20.80;;;10.90;;
26407;SDS011;14583;43.604;1.364;2024-03-22T04:09:11;18.67;;;10.10;;
26407;SDS011;14583;43.604;1.364;2024-03-22T04:11:36;24.70;;;11.98;;
26407;SDS011;14583;43.604;1.364;2024-03-22T04:14:03;19.17;;;10.10;;
26407;SDS011;14583;43.604;1.364;2024-03-22T04:16:29;28.67;;;11.02;;
26407;SDS011;14583;43.604;1.364;2024-03-22T04:18:54;18.67;;;10.15;;
26407;SDS011;14583;43.604;1.364;2024-03-22T04:21:20;22.77;;;10.27;;
26407;SDS011;14583;43.604;1.364;2024-03-22T04:23:46;25.23;;;10.95;;
26407;SDS011;14583;43.604;1.364;2024-03-22T04:26:11;21.80;;;10.85;;
26407;SDS011;14583;43.604;1.364;2024-03-22T04:28:37;22.80;;;11.75;;
26407;SDS011;14583;43.604;1.364;2024-03-22T04:31:03;26.15;;;11.60;;
26407;SDS011;14583;43.604;1.364;2024-03-22T04:33:30;18.58;;;10.95;;
26407;SDS011;14583;43.604;1.364;2024-03-22T04:35:57;21.45;;;10.63;;
26407;SDS011;14583;43.604;1.364;2024-03-22T04:38:24;19.08;;;10.20;;
26407;SDS011;14583;43.604;1.364;2024-03-22T04:40:50;23.35;;;10.25;;
26407;SDS011;14583;43.604;1.364;2024-03-22T04:43:17;18.25;;;10.93;;
26407;SDS011;14583;43.604;1.364;2024-03-22T04:45:43;24.50;;;10.13;;
26407;SDS011;14583;43.604;1.364;2024-03-22T04:48:11;21.63;;;10.45;;
26407;SDS011;14583;43.604;1.364;2024-03-22T04:50:38;21.17;;;10.77;;
26407;SDS011;14583;43.604;1.364;2024-03-22T04:53:04;25.90;;;10.43;;
26407;SDS011;14583;43.604;1.364;2024-03-22T04:55:30;22.30;;;11.35;;
26407;SDS011;14583;43.604;1.364;2024-03-22T04:57:58;18.73;;;10.38;;
26407;SDS011;14583;43.604;1.364;2024-03-22T05:00:23;25.20;;;10.88;;
26407;SDS011;14583;43.604;1.364;2024-03-22T05:02:52;22.20;;;11.30;;
26407;SDS011;14583;43.604;1.364;2024-03-22T05:05:18;16.35;;;10.70;;
26407;SDS011;14583;43.604;1.364;2024-03-22T05:07:44;23.02;;;11.05;;
26407;SDS011;14583;43.604;1.364;2024-03-22T05:10:10;24.38;;;11.85;;
26407;SDS011;14583;43.604;1.364;2024-03-22T05:12:36;21.95;;;11.65;;
26407;SDS011;14583;43.604;1.364;2024-03-22T05:15:02;21.85;;;12.25;;
26407;SDS011;14583;43.604;1.364;2024-03-22T05:17:29;22.67;;;12.30;;
26407;SDS011;14583;43.604;1.364;2024-03-22T05:19:56;24.42;;;11.85;;
26407;SDS011;14583;43.604;1.364;2024-03-22T05:22:22;21.08;;;10.80;;
26407;SDS011;14583;43.604;1.364;2024-03-22T05:24:48;21.38;;;11.18;;
26407;SDS011;14583;43.604;1.364;2024-03-22T05:27:14;20.02;;;11.77;;
26407;SDS011;14583;43.604;1.364;2024-03-22T05:29:39;22.60;;;10.73;;
26407;SDS011;14583;43.604;1.364;2024-03-22T05:32:05;24.52;;;11.30;;
26407;SDS011;14583;43.604;1.364;2024-03-22T05:34:31;21.55;;;11.18;;
26407;SDS011;14583;43.604;1.364;2024-03-22T05:36:57;28.35;;;11.38;;
26407;SDS011;14583;43.604;1.364;2024-03-22T05:39:24;18.80;;;10.73;;
26407;SDS011;14583;43.604;1.364;2024-03-22T05:41:50;23.42;;;11.80;;
26407;SDS011;14583;43.604;1.364;2024-03-22T05:44:15;18.65;;;10.90;;
26407;SDS011;14583;43.604;1.364;2024-03-22T05:46:41;21.30;;;11.55;;
26407;SDS011;14583;43.604;1.364;2024-03-22T05:49:07;18.23;;;11.05;;
26407;SDS011;14583;43.604;1.364;2024-03-22T05:51:33;24.00;;;11.80;;
26407;SDS011;14583;43.604;1.364;2024-03-22T05:53:58;38.47;;;12.55;;
26407;SDS011;14583;43.604;1.364;2024-03-22T05:56:24;28.13;;;12.48;;
26407;SDS011;14583;43.604;1.364;2024-03-22T05:58:50;34.00;;;12.35;;
26407;SDS011;14583;43.604;1.364;2024-03-22T06:01:15;34.78;;;12.77;;
26407;SDS011;14583;43.604;1.364;2024-03-22T06:03:41;31.13;;;12.57;;
26407;SDS011;14583;43.604;1.364;2024-03-22T06:06:07;25.98;;;11.13;;
26407;SDS011;14583;43.604;1.364;2024-03-22T06:08:32;26.38;;;11.60;;
26407;SDS011;14583;43.604;1.364;2024-03-22T06:10:59;21.63;;;12.05;;
26407;SDS011;14583;43.604;1.364;2024-03-22T06:13:26;24.65;;;11.45;;
26407;SDS011;14583;43.604;1.364;2024-03-22T06:15:51;19.52;;;11.35;;
26407;SDS011;14583;43.604;1.364;2024-03-22T06:18:17;28.95;;;11.85;;
26407;SDS011;14583;43.604;1.364;2024-03-22T06:20:43;26.10;;;11.02;;
26407;SDS011;14583;43.604;1.364;2024-03-22T06:23:09;20.67;;;11.50;;
26407;SDS011;14583;43.604;1.364;2024-03-22T06:25:35;21.23;;;11.80;;
26407;SDS011;14583;43.604;1.364;2024-03-22T06:28:01;23.13;;;11.75;;
26407;SDS011;14583;43.604;1.364;2024-03-22T06:30:27;22.05;;;11.48;;
26407;SDS011;14583;43.604;1.364;2024-03-22T06:32:53;25.10;;;12.27;;
26407;SDS011;14583;43.604;1.364;2024-03-22T06:35:20;26.23;;;12.65;;
26407;SDS011;14583;43.604;1.364;2024-03-22T06:37:46;22.77;;;11.90;;
26407;SDS011;14583;43.604;1.364;2024-03-22T06:40:11;24.80;;;12.27;;
26407;SDS011;14583;43.604;1.364;2024-03-22T06:42:37;30.08;;;13.40;;
26407;SDS011;14583;43.604;1.364;2024-03-22T06:45:03;30.95;;;12.73;;
26407;SDS011;14583;43.604;1.364;2024-03-22T06:47:29;27.60;;;12.95;;
26407;SDS011;14583;43.604;1.364;2024-03-22T06:49:55;24.83;;;12.80;;
26407;SDS011;14583;43.604;1.364;2024-03-22T06:52:21;30.73;;;13.30;;
26407;SDS011;14583;43.604;1.364;2024-03-22T06:54:46;25.30;;;12.98;;
26407;SDS011;14583;43.604;1.364;2024-03-22T06:57:14;26.15;;;14.00;;
26407;SDS011;14583;43.604;1.364;2024-03-22T06:59:40;25.05;;;13.98;;
26407;SDS011;14583;43.604;1.364;2024-03-22T07:02:06;25.90;;;13.13;;
26407;SDS011;14583;43.604;1.364;2024-03-22T07:04:31;25.77;;;12.75;;
26407;SDS011;14583;43.604;1.364;2024-03-22T07:06:57;25.05;;;12.20;;
26407;SDS011;14583;43.604;1.364;2024-03-22T07:09:22;28.10;;;12.40;;
26407;SDS011;14583;43.604;1.364;2024-03-22T07:11:48;25.17;;;13.43;;
26407;SDS011;14583;43.604;1.364;2024-03-22T07:14:15;25.55;;;12.20;;
26407;SDS011;14583;43.604;1.364;2024-03-22T07:16:41;26.50;;;12.68;;
26407;SDS011;14583;43.604;1.364;2024-03-22T07:19:07;35.50;;;12.40;;
26407;SDS011;14583;43.604;1.364;2024-03-22T07:21:32;18.65;;;11.73;;
26407;SDS011;14583;43.604;1.364;2024-03-22T07:23:58;23.23;;;11.98;;
26407;SDS011;14583;43.604;1.364;2024-03-22T07:26:24;29.48;;;12.77;;
26407;SDS011;14583;43.604;1.364;2024-03-22T07:28:49;28.98;;;14.40;;
26407;SDS011;14583;43.604;1.364;2024-03-22T07:31:15;26.58;;;13.13;;
26407;SDS011;14583;43.604;1.364;2024-03-22T07:33:41;39.75;;;13.63;;
26407;SDS011;14583;43.604;1.364;2024-03-22T07:36:06;27.75;;;12.82;;
26407;SDS011;14583;43.604;1.364;2024-03-22T07:38:32;27.50;;;13.18;;
26407;SDS011;14583;43.604;1.364;2024-03-22T07:40:58;27.98;;;14.13;;
26407;SDS011;14583;43.604;1.364;2024-03-22T07:43:24;27.55;;;13.05;;
26407;SDS011;14583;43.604;1.364;2024-03-22T07:45:49;30.77;;;13.77;;
26407;SDS011;14583;43.604;1.364;2024-03-22T07:48:15;21.00;;;12.23;;
26407;SDS011;14583;43.604;1.364;2024-03-22T07:50:41;34.85;;;13.82;;
26407;SDS011;14583;43.604;1.364;2024-03-22T07:53:07;29.35;;;14.30;;
26407;SDS011;14583;43.604;1.364;2024-03-22T07:55:33;24.58;;;14.32;;
26407;SDS011;14583;43.604;1.364;2024-03-22T07:57:59;33.78;;;14.38;;
26407;SDS011;14583;43.604;1.364;2024-03-22T08:00:24;26.08;;;14.30;;
26407;SDS011;14583;43.604;1.364;2024-03-22T08:02:53;27.65;;;13.50;;
26407;SDS011;14583;43.604;1.364;2024-03-22T08:05:19;28.55;;;13.15;;
26407;SDS011;14583;43.604;1.364;2024-03-22T08:07:45;34.10;;;13.45;;
26407;SDS011;14583;43.604;1.364;2024-03-22T08:10:11;26.17;;;13.20;;
26407;SDS011;14583;43.604;1.364;2024-03-22T08:12:37;28.50;;;13.95;;
26407;SDS011;14583;43.604;1.364;2024-03-22T08:15:03;26.60;;;12.38;;
26407;SDS011;14583;43.604;1.364;2024-03-22T08:17:28;28.38;;;15.55;;
26407;SDS011;14583;43.604;1.364;2024-03-22T08:19:54;38.60;;;18.52;;
26407;SDS011;14583;43.604;1.364;2024-03-22T08:22:20;46.35;;;24.15;;
26407;SDS011;14583;43.604;1.364;2024-03-22T08:24:45;49.42;;;34.00;;
26407;SDS011;14583;43.604;1.364;2024-03-22T08:27:11;50.20;;;35.90;;
26407;SDS011;14583;43.604;1.364;2024-03-22T08:29:37;51.58;;;37.42;;
26407;SDS011;14583;43.604;1.364;2024-03-22T08:32:05;53.33;;;36.60;;
26407;SDS011;14583;43.604;1.364;2024-03-22T08:34:31;51.58;;;32.20;;
26407;SDS011;14583;43.604;1.364;2024-03-22T08:36:59;50.22;;;26.75;;
26407;SDS011;14583;43.604;1.364;2024-03-22T08:39:25;33.78;;;21.67;;
26407;SDS011;14583;43.604;1.364;2024-03-22T08:41:51;34.75;;;17.35;;
26407;SDS011;14583;43.604;1.364;2024-03-22T08:44:17;38.03;;;16.30;;
26407;SDS011;14583;43.604;1.364;2024-03-22T08:46:43;29.38;;;14.38;;
26407;SDS011;14583;43.604;1.364;2024-03-22T08:49:08;24.75;;;12.38;;
26407;SDS011;14583;43.604;1.364;2024-03-22T08:51:34;24.83;;;13.45;;
26407;SDS011;14583;43.604;1.364;2024-03-22T08:54:00;26.90;;;13.85;;
26407;SDS011;14583;43.604;1.364;2024-03-22T08:56:26;32.88;;;13.38;;
26407;SDS011;14583;43.604;1.364;2024-03-22T08:58:51;39.65;;;14.75;;
26407;SDS011;14583;43.604;1.364;2024-03-22T09:01:17;38.40;;;15.18;;
26407;SDS011;14583;43.604;1.364;2024-03-22T09:03:43;45.03;;;19.35;;
26407;SDS011;14583;43.604;1.364;2024-03-22T09:06:12;38.40;;;13.98;;
26407;SDS011;14583;43.604;1.364;2024-03-22T09:08:38;31.60;;;13.77;;
26407;SDS011;14583;43.604;1.364;2024-03-22T09:11:03;26.27;;;12.98;;
26407;SDS011;14583;43.604;1.364;2024-03-22T09:13:29;34.00;;;12.75;;
26407;SDS011;14583;43.604;1.364;2024-03-22T09:15:56;29.83;;;13.02;;
26407;SDS011;14583;43.604;1.364;2024-03-22T09:18:24;32.63;;;12.85;;
26407;SDS011;14583;43.604;1.364;2024-03-22T09:20:52;34.53;;;12.75;;
26407;SDS011;14583;43.604;1.364;2024-03-22T09:23:18;32.38;;;12.30;;
26407;SDS011;14583;43.604;1.364;2024-03-22T09:25:44;33.63;;;13.52;;
26407;SDS011;14583;43.604;1.364;2024-03-22T09:28:13;24.70;;;11.93;;
26407;SDS011;14583;43.604;1.364;2024-03-22T09:30:40;26.15;;;12.27;;
26407;SDS011;14583;43.604;1.364;2024-03-22T09:33:06;29.13;;;12.13;;
26407;SDS011;14583;43.604;1.364;2024-03-22T09:35:36;28.17;;;12.98;;
26407;SDS011;14583;43.604;1.364;2024-03-22T09:38:01;23.60;;;13.40;;
26407;SDS011;14583;43.604;1.364;2024-03-22T09:40:30;33.17;;;12.45;;
26407;SDS011;14583;43.604;1.364;2024-03-22T09:42:58;23.83;;;11.77;;
26407;SDS011;14583;43.604;1.364;2024-03-22T09:45:28;25.52;;;11.68;;
26407;SDS011;14583;43.604;1.364;2024-03-22T09:47:54;25.83;;;11.40;;
26407;SDS011;14583;43.604;1.364;2024-03-22T09:50:21;30.45;;;12.35;;
26407;SDS011;14583;43.604;1.364;2024-03-22T09:52:48;25.02;;;10.80;;
26407;SDS011;14583;43.604;1.364;2024-03-22T09:55:16;27.13;;;11.68;;
26407;SDS011;14583;43.604;1.364;2024-03-22T09:57:43;24.65;;;10.02;;
26407;SDS011;14583;43.604;1.364;2024-03-22T10:00:10;26.55;;;11.98;;
26407;SDS011;14583;43.604;1.364;2024-03-22T10:02:39;27.35;;;11.70;;
26407;SDS011;14583;43.604;1.364;2024-03-22T10:05:05;34.35;;;12.65;;
26407;SDS011;14583;43.604;1.364;2024-03-22T10:07:31;24.65;;;12.15;;
26407;SDS011;14583;43.604;1.364;2024-03-22T10:09:58;26.55;;;11.65;;
26407;SDS011;14583;43.604;1.364;2024-03-22T10:12:24;29.63;;;12.13;;
26407;SDS011;14583;43.604;1.364;2024-03-22T10:14:52;30.23;;;12.88;;
26407;SDS011;14583;43.604;1.364;2024-03-22T10:17:18;22.48;;;11.30;;
26407;SDS011;14583;43.604;1.364;2024-03-22T10:19:45;29.70;;;12.40;;
26407;SDS011;14583;43.604;1.364;2024-03-22T10:22:10;26.00;;;12.15;;
26407;SDS011;14583;43.604;1.364;2024-03-22T10:24:36;30.65;;;13.10;;
26407;SDS011;14583;43.604;1.364;2024-03-22T10:27:02;25.45;;;11.95;;
26407;SDS011;14583;43.604;1.364;2024-03-22T10:29:27;25.90;;;12.02;;
26407;SDS011;14583;43.604;1.364;2024-03-22T10:31:53;31.83;;;12.50;;
26407;SDS011;14583;43.604;1.364;2024-03-22T10:34:20;27.90;;;12.05;;
26407;SDS011;14583;43.604;1.364;2024-03-22T10:36:47;25.98;;;10.68;;
26407;SDS011;14583;43.604;1.364;2024-03-22T10:39:13;25.02;;;11.05;;
26407;SDS011;14583;43.604;1.364;2024-03-22T10:41:43;25.98;;;11.20;;
26407;SDS011;14583;43.604;1.364;2024-03-22T10:44:13;29.52;;;11.77;;
26407;SDS011;14583;43.604;1.364;2024-03-22T10:46:41;30.08;;;12.45;;
26407;SDS011;14583;43.604;1.364;2024-03-22T10:49:10;26.42;;;11.70;;
26407;SDS011;14583;43.604;1.364;2024-03-22T10:51:41;27.67;;;12.73;;
26407;SDS011;14583;43.604;1.364;2024-03-22T10:54:18;31.00;;;11.77;;
26407;SDS011;14583;43.604;1.364;2024-03-22T10:56:46;29.42;;;11.95;;
26407;SDS011;14583;43.604;1.364;2024-03-22T10:59:14;28.70;;;11.77;;
26407;SDS011;14583;43.604;1.364;2024-03-22T11:01:45;24.83;;;12.45;;
26407;SDS011;14583;43.604;1.364;2024-03-22T11:04:11;23.88;;;10.75;;
26407;SDS011;14583;43.604;1.364;2024-03-22T11:06:38;26.15;;;10.20;;
26407;SDS011;14583;43.604;1.364;2024-03-22T11:09:04;26.90;;;11.23;;
26407;SDS011;14583;43.604;1.364;2024-03-22T11:11:30;30.67;;;10.55;;
26407;SDS011;14583;43.604;1.364;2024-03-22T11:14:02;27.58;;;10.88;;
26407;SDS011;14583;43.604;1.364;2024-03-22T11:16:28;26.17;;;9.95;;
26407;SDS011;14583;43.604;1.364;2024-03-22T11:18:54;31.80;;;11.63;;
26407;SDS011;14583;43.604;1.364;2024-03-22T11:21:20;23.40;;;10.40;;
26407;SDS011;14583;43.604;1.364;2024-03-22T11:23:46;24.45;;;10.15;;
26407;SDS011;14583;43.604;1.364;2024-03-22T11:26:12;27.60;;;9.65;;
26407;SDS011;14583;43.604;1.364;2024-03-22T11:28:38;21.63;;;9.45;;
26407;SDS011;14583;43.604;1.364;2024-03-22T11:31:04;21.52;;;9.25;;
26407;SDS011;14583;43.604;1.364;2024-03-22T11:33:30;21.08;;;8.80;;
26407;SDS011;14583;43.604;1.364;2024-03-22T11:35:59;26.13;;;8.52;;
26407;SDS011;14583;43.604;1.364;2024-03-22T11:38:26;26.15;;;9.25;;
26407;SDS011;14583;43.604;1.364;2024-03-22T11:40:52;21.23;;;8.85;;
26407;SDS011;14583;43.604;1.364;2024-03-22T11:43:19;18.55;;;8.85;;
26407;SDS011;14583;43.604;1.364;2024-03-22T11:45:45;21.38;;;9.10;;
26407;SDS011;14583;43.604;1.364;2024-03-22T11:48:11;22.25;;;9.35;;
26407;SDS011;14583;43.604;1.364;2024-03-22T11:50:37;20.05;;;7.97;;
26407;SDS011;14583;43.604;1.364;2024-03-22T11:53:04;24.45;;;9.10;;
26407;SDS011;14583;43.604;1.364;2024-03-22T11:55:31;23.30;;;9.02;;
26407;SDS011;14583;43.604;1.364;2024-03-22T11:57:57;24.95;;;8.57;;
26407;SDS011;14583;43.604;1.364;2024-03-22T12:00:23;23.83;;;7.78;;
26407;SDS011;14583;43.604;1.364;2024-03-22T12:02:50;17.27;;;8.60;;
26407;SDS011;14583;43.604;1.364;2024-03-22T12:05:17;18.25;;;8.65;;
26407;SDS011;14583;43.604;1.364;2024-03-22T12:07:43;23.90;;;9.68;;
26407;SDS011;14583;43.604;1.364;2024-03-22T12:10:10;23.25;;;8.27;;
26407;SDS011;14583;43.604;1.364;2024-03-22T12:12:35;21.45;;;7.88;;
26407;SDS011;14583;43.604;1.364;2024-03-22T12:15:04;18.52;;;7.97;;
26407;SDS011;14583;43.604;1.364;2024-03-22T12:17:30;20.15;;;8.70;;
26407;SDS011;14583;43.604;1.364;2024-03-22T12:19:56;21.02;;;8.10;;
26407;SDS011;14583;43.604;1.364;2024-03-22T12:22:21;16.45;;;7.75;;
26407;SDS011;14583;43.604;1.364;2024-03-22T12:24:47;26.10;;;8.00;;
26407;SDS011;14583;43.604;1.364;2024-03-22T12:27:13;15.45;;;7.13;;
26407;SDS011;14583;43.604;1.364;2024-03-22T12:29:39;22.95;;;6.63;;
26407;SDS011;14583;43.604;1.364;2024-03-22T12:32:04;12.95;;;6.60;;
26407;SDS011;14583;43.604;1.364;2024-03-22T12:34:31;17.13;;;7.57;;
26407;SDS011;14583;43.604;1.364;2024-03-22T12:36:58;17.63;;;7.53;;
26407;SDS011;14583;43.604;1.364;2024-03-22T12:39:24;17.92;;;6.57;;
26407;SDS011;14583;43.604;1.364;2024-03-22T12:41:50;15.55;;;7.10;;
26407;SDS011;14583;43.604;1.364;2024-03-22T12:44:16;15.98;;;7.38;;
26407;SDS011;14583;43.604;1.364;2024-03-22T12:46:42;14.38;;;6.90;;
26407;SDS011;14583;43.604;1.364;2024-03-22T12:49:09;20.35;;;7.25;;
26407;SDS011;14583;43.604;1.364;2024-03-22T12:51:35;16.63;;;6.80;;
26407;SDS011;14583;43.604;1.364;2024-03-22T12:54:02;15.27;;;6.72;;
26407;SDS011;14583;43.604;1.364;2024-03-22T12:56:28;16.88;;;6.75;;
26407;SDS011;14583;43.604;1.364;2024-03-22T12:58:54;13.27;;;6.20;;
26407;SDS011;14583;43.604;1.364;2024-03-22T13:01:20;16.02;;;6.70;;
26407;SDS011;14583;43.604;1.364;2024-03-22T13:03:46;20.70;;;6.50;;
26407;SDS011;14583;43.604;1.364;2024-03-22T13:06:12;16.98;;;6.53;;
26407;SDS011;14583;43.604;1.364;2024-03-22T13:08:37;14.57;;;6.25;;
26407;SDS011;14583;43.604;1.364;2024-03-22T13:11:04;19.63;;;5.95;;
26407;SDS011;14583;43.604;1.364;2024-03-22T13:13:30;15.18;;;5.60;;
26407;SDS011;14583;43.604;1.364;2024-03-22T13:15:58;16.05;;;6.18;;
26407;SDS011;14583;43.604;1.364;2024-03-22T13:18:27;19.05;;;6.30;;
26407;SDS011;14583;43.604;1.364;2024-03-22T13:20:53;15.07;;;5.45;;
26407;SDS011;14583;43.604;1.364;2024-03-22T13:23:19;17.00;;;5.50;;
26407;SDS011;14583;43.604;1.364;2024-03-22T13:25:44;13.10;;;5.32;;
26407;SDS011;14583;43.604;1.364;2024-03-22T13:28:10;19.60;;;6.38;;
26407;SDS011;14583;43.604;1.364;2024-03-22T13:30:36;19.55;;;6.35;;
26407;SDS011;14583;43.604;1.364;2024-03-22T13:33:02;14.23;;;4.88;;
26407;SDS011;14583;43.604;1.364;2024-03-22T13:35:28;14.07;;;5.43;;
26407;SDS011;14583;43.604;1.364;2024-03-22T13:37:54;21.05;;;5.45;;
26407;SDS011;14583;43.604;1.364;2024-03-22T13:40:20;14.38;;;5.00;;
26407;SDS011;14583;43.604;1.364;2024-03-22T13:42:46;15.85;;;5.95;;
26407;SDS011;14583;43.604;1.364;2024-03-22T13:45:11;16.63;;;4.32;;
26407;SDS011;14583;43.604;1.364;2024-03-22T13:47:37;17.45;;;5.50;;
26407;SDS011;14583;43.604;1.364;2024-03-22T13:50:05;29.05;;;7.70;;
26407;SDS011;14583;43.604;1.364;2024-03-22T13:52:33;43.85;;;9.32;;
26407;SDS011;14583;43.604;1.364;2024-03-22T13:55:00;24.52;;;7.15;;
26407;SDS011;14583;43.604;1.364;2024-03-22T13:57:27;14.63;;;5.32;;
26407;SDS011;14583;43.604;1.364;2024-03-22T13:59:52;19.90;;;4.93;;
26407;SDS011;14583;43.604;1.364;2024-03-22T14:02:18;19.15;;;4.95;;
26407;SDS011;14583;43.604;1.364;2024-03-22T14:04:45;15.30;;;5.03;;
26407;SDS011;14583;43.604;1.364;2024-03-22T14:07:10;22.80;;;5.72;;
26407;SDS011;14583;43.604;1.364;2024-03-22T14:09:36;17.70;;;5.13;;
26407;SDS011;14583;43.604;1.364;2024-03-22T14:12:02;18.30;;;5.50;;
26407;SDS011;14583;43.604;1.364;2024-03-22T14:14:28;15.15;;;5.30;;
26407;SDS011;14583;43.604;1.364;2024-03-22T14:16:54;18.30;;;5.43;;